sensor_id;sensor_type;location;lat;lon;timestamp;temperature;humidity
46932;DHT22;32670;51.464;11.964;2023-03-30T00:02:17;22.30;49.50
46932;DHT22;32670;51.464;11.964;2023-03-30T00:04:43;22.30;49.50
46932;DHT22;32670;51.464;11.964;2023-03-30T00:07:09;22.40;49.60
46932;DHT22;32670;51.464;11.964;2023-03-30T00:09:35;22.40;49.70
46932;DHT22;32670;51.464;11.964;2023-03-30T00:12:07;22.40;49.70
46932;DHT22;32670;51.464;11.964;2023-03-30T00:14:33;22.40;49.70
46932;DHT22;32670;51.464;11.964;2023-03-30T00:17:02;22.40;49.90
46932;DHT22;32670;51.464;11.964;2023-03-30T00:19:28;22.40;49.90
46932;DHT22;32670;51.464;11.964;2023-03-30T00:21:53;22.40;49.90
46932;DHT22;32670;51.464;11.964;2023-03-30T00:24:19;22.40;49.80
46932;DHT22;32670;51.464;11.964;2023-03-30T00:26:44;22.40;50.00
46932;DHT22;32670;51.464;11.964;2023-03-30T00:29:10;22.40;49.90
46932;DHT22;32670;51.464;11.964;2023-03-30T00:31:35;22.40;50.10
46932;DHT22;32670;51.464;11.964;2023-03-30T00:34:01;22.40;50.10
46932;DHT22;32670;51.464;11.964;2023-03-30T00:36:26;22.40;50.20
46932;DHT22;32670;51.464;11.964;2023-03-30T00:38:52;22.40;50.10
46932;DHT22;32670;51.464;11.964;2023-03-30T00:41:18;22.40;50.10
46932;DHT22;32670;51.464;11.964;2023-03-30T00:44:04;22.40;50.10
46932;DHT22;32670;51.464;11.964;2023-03-30T00:46:30;22.40;50.20
46932;DHT22;32670;51.464;11.964;2023-03-30T00:49:01;22.40;50.30
46932;DHT22;32670;51.464;11.964;2023-03-30T00:51:31;22.40;50.30
46932;DHT22;32670;51.464;11.964;2023-03-30T00:54:03;22.40;50.50
46932;DHT22;32670;51.464;11.964;2023-03-30T00:56:29;22.40;50.50
46932;DHT22;32670;51.464;11.964;2023-03-30T00:58:55;22.40;50.40
46932;DHT22;32670;51.464;11.964;2023-03-30T01:01:21;22.40;50.60
46932;DHT22;32670;51.464;11.964;2023-03-30T01:03:56;22.40;50.80
46932;DHT22;32670;51.464;11.964;2023-03-30T01:06:24;22.40;51.10
46932;DHT22;32670;51.464;11.964;2023-03-30T01:08:52;22.40;50.90
46932;DHT22;32670;51.464;11.964;2023-03-30T01:11:18;22.40;50.80
46932;DHT22;32670;51.464;11.964;2023-03-30T01:13:46;22.40;51.00
46932;DHT22;32670;51.464;11.964;2023-03-30T01:22:29;22.40;51.10
46932;DHT22;32670;51.464;11.964;2023-03-30T01:28:07;22.50;51.30
46932;DHT22;32670;51.464;11.964;2023-03-30T01:30:41;22.50;51.30
46932;DHT22;32670;51.464;11.964;2023-03-30T01:33:50;22.50;51.20
46932;DHT22;32670;51.464;11.964;2023-03-30T01:36:39;22.50;51.50
46932;DHT22;32670;51.464;11.964;2023-03-30T01:39:21;22.50;51.40
46932;DHT22;32670;51.464;11.964;2023-03-30T01:45:04;22.50;51.50
46932;DHT22;32670;51.464;11.964;2023-03-30T01:47:49;22.50;51.40
46932;DHT22;32670;51.464;11.964;2023-03-30T01:50:28;22.50;51.50
46932;DHT22;32670;51.464;11.964;2023-03-30T01:53:26;22.50;51.30
46932;DHT22;32670;51.464;11.964;2023-03-30T01:56:16;22.50;51.50
46932;DHT22;32670;51.464;11.964;2023-03-30T01:58:53;22.50;51.60
46932;DHT22;32670;51.464;11.964;2023-03-30T02:01:21;22.50;51.50
46932;DHT22;32670;51.464;11.964;2023-03-30T02:03:50;22.50;51.40
46932;DHT22;32670;51.464;11.964;2023-03-30T02:08:49;22.50;51.60
46932;DHT22;32670;51.464;11.964;2023-03-30T02:11:16;22.50;51.50
46932;DHT22;32670;51.464;11.964;2023-03-30T02:13:42;22.50;51.70
46932;DHT22;32670;51.464;11.964;2023-03-30T02:16:16;22.50;51.70
46932;DHT22;32670;51.464;11.964;2023-03-30T02:18:43;22.50;51.90
46932;DHT22;32670;51.464;11.964;2023-03-30T02:21:09;22.50;51.70
46932;DHT22;32670;51.464;11.964;2023-03-30T02:23:39;22.50;51.80
46932;DHT22;32670;51.464;11.964;2023-03-30T02:26:06;22.50;51.90
46932;DHT22;32670;51.464;11.964;2023-03-30T02:28:33;22.50;51.80
46932;DHT22;32670;51.464;11.964;2023-03-30T02:30:59;22.50;51.90
46932;DHT22;32670;51.464;11.964;2023-03-30T02:36:51;22.50;52.20
46932;DHT22;32670;51.464;11.964;2023-03-30T02:42:27;22.50;52.00
46932;DHT22;32670;51.464;11.964;2023-03-30T02:45:13;22.50;52.00
46932;DHT22;32670;51.464;11.964;2023-03-30T02:47:58;22.60;52.20
46932;DHT22;32670;51.464;11.964;2023-03-30T02:53:34;22.60;52.40
46932;DHT22;32670;51.464;11.964;2023-03-30T02:56:22;22.60;52.30
46932;DHT22;32670;51.464;11.964;2023-03-30T02:59:04;22.50;52.30
46932;DHT22;32670;51.464;11.964;2023-03-30T03:01:35;22.50;52.20
46932;DHT22;32670;51.464;11.964;2023-03-30T03:04:04;22.60;52.30
46932;DHT22;32670;51.464;11.964;2023-03-30T03:06:31;22.60;52.40
46932;DHT22;32670;51.464;11.964;2023-03-30T03:08:57;22.60;52.30
46932;DHT22;32670;51.464;11.964;2023-03-30T03:11:24;22.60;52.20
46932;DHT22;32670;51.464;11.964;2023-03-30T03:13:50;22.60;52.50
46932;DHT22;32670;51.464;11.964;2023-03-30T03:16:15;22.60;52.50
46932;DHT22;32670;51.464;11.964;2023-03-30T03:18:41;22.60;52.40
46932;DHT22;32670;51.464;11.964;2023-03-30T03:21:07;22.60;52.50
46932;DHT22;32670;51.464;11.964;2023-03-30T03:23:35;22.60;52.50
46932;DHT22;32670;51.464;11.964;2023-03-30T03:26:01;22.60;52.40
46932;DHT22;32670;51.464;11.964;2023-03-30T03:28:27;22.60;52.40
46932;DHT22;32670;51.464;11.964;2023-03-30T03:30:53;22.60;52.50
46932;DHT22;32670;51.464;11.964;2023-03-30T03:33:19;22.70;52.50
46932;DHT22;32670;51.464;11.964;2023-03-30T03:35:44;22.70;52.60
46932;DHT22;32670;51.464;11.964;2023-03-30T03:38:11;22.70;52.60
46932;DHT22;32670;51.464;11.964;2023-03-30T03:40:37;22.70;52.50
46932;DHT22;32670;51.464;11.964;2023-03-30T03:43:02;22.60;52.70
46932;DHT22;32670;51.464;11.964;2023-03-30T03:45:27;22.70;52.60
46932;DHT22;32670;51.464;11.964;2023-03-30T03:47:53;22.60;52.70
46932;DHT22;32670;51.464;11.964;2023-03-30T03:50:19;22.60;52.50
46932;DHT22;32670;51.464;11.964;2023-03-30T03:52:45;22.70;52.90
46932;DHT22;32670;51.464;11.964;2023-03-30T03:55:10;22.70;52.80
46932;DHT22;32670;51.464;11.964;2023-03-30T03:57:37;22.70;52.70
46932;DHT22;32670;51.464;11.964;2023-03-30T04:00:04;22.70;52.80
46932;DHT22;32670;51.464;11.964;2023-03-30T04:02:40;22.70;52.90
46932;DHT22;32670;51.464;11.964;2023-03-30T04:05:06;22.70;53.00
46932;DHT22;32670;51.464;11.964;2023-03-30T04:07:33;22.60;52.80
46932;DHT22;32670;51.464;11.964;2023-03-30T04:10:00;22.60;53.10
46932;DHT22;32670;51.464;11.964;2023-03-30T04:12:28;22.60;53.00
46932;DHT22;32670;51.464;11.964;2023-03-30T04:14:53;22.70;53.00
46932;DHT22;32670;51.464;11.964;2023-03-30T04:17:19;22.60;53.00
46932;DHT22;32670;51.464;11.964;2023-03-30T04:19:48;22.70;53.20
46932;DHT22;32670;51.464;11.964;2023-03-30T04:22:21;22.70;53.00
46932;DHT22;32670;51.464;11.964;2023-03-30T04:24:50;22.70;53.10
46932;DHT22;32670;51.464;11.964;2023-03-30T04:27:18;22.70;53.30
46932;DHT22;32670;51.464;11.964;2023-03-30T04:29:44;22.70;53.30
46932;DHT22;32670;51.464;11.964;2023-03-30T04:32:10;22.70;53.40
46932;DHT22;32670;51.464;11.964;2023-03-30T04:34:40;22.70;53.50
46932;DHT22;32670;51.464;11.964;2023-03-30T04:37:09;22.70;53.30
46932;DHT22;32670;51.464;11.964;2023-03-30T04:39:35;22.70;52.50
46932;DHT22;32670;51.464;11.964;2023-03-30T04:42:01;22.70;52.70
46932;DHT22;32670;51.464;11.964;2023-03-30T04:44:30;22.70;52.60
46932;DHT22;32670;51.464;11.964;2023-03-30T04:46:56;22.80;52.80
46932;DHT22;32670;51.464;11.964;2023-03-30T04:49:22;22.70;52.80
46932;DHT22;32670;51.464;11.964;2023-03-30T04:51:47;22.70;52.90
46932;DHT22;32670;51.464;11.964;2023-03-30T04:54:13;22.70;52.80
46932;DHT22;32670;51.464;11.964;2023-03-30T04:56:38;22.70;53.00
46932;DHT22;32670;51.464;11.964;2023-03-30T04:59:04;22.70;53.00
46932;DHT22;32670;51.464;11.964;2023-03-30T05:01:29;22.70;52.90
46932;DHT22;32670;51.464;11.964;2023-03-30T05:03:55;22.70;53.00
46932;DHT22;32670;51.464;11.964;2023-03-30T05:06:20;22.70;53.00
46932;DHT22;32670;51.464;11.964;2023-03-30T05:08:45;22.70;53.00
46932;DHT22;32670;51.464;11.964;2023-03-30T05:11:11;22.70;53.10
46932;DHT22;32670;51.464;11.964;2023-03-30T05:13:37;22.70;53.10
46932;DHT22;32670;51.464;11.964;2023-03-30T05:16:05;22.70;53.10
46932;DHT22;32670;51.464;11.964;2023-03-30T05:18:30;22.70;53.20
46932;DHT22;32670;51.464;11.964;2023-03-30T05:20:57;22.70;53.30
46932;DHT22;32670;51.464;11.964;2023-03-30T05:23:23;22.70;53.20
46932;DHT22;32670;51.464;11.964;2023-03-30T05:25:48;22.70;53.50
46932;DHT22;32670;51.464;11.964;2023-03-30T05:28:14;22.70;53.60
46932;DHT22;32670;51.464;11.964;2023-03-30T05:30:41;22.70;53.90
46932;DHT22;32670;51.464;11.964;2023-03-30T05:33:07;22.80;53.70
46932;DHT22;32670;51.464;11.964;2023-03-30T05:35:35;22.70;53.40
46932;DHT22;32670;51.464;11.964;2023-03-30T05:38:00;22.80;53.20
46932;DHT22;32670;51.464;11.964;2023-03-30T05:40:26;22.70;49.40
46932;DHT22;32670;51.464;11.964;2023-03-30T05:42:51;22.50;45.50
46932;DHT22;32670;51.464;11.964;2023-03-30T05:45:17;22.30;44.50
46932;DHT22;32670;51.464;11.964;2023-03-30T05:47:42;22.10;43.90
46932;DHT22;32670;51.464;11.964;2023-03-30T05:50:08;22.00;43.70
46932;DHT22;32670;51.464;11.964;2023-03-30T05:52:33;21.90;42.80
46932;DHT22;32670;51.464;11.964;2023-03-30T05:54:59;21.80;42.50
46932;DHT22;32670;51.464;11.964;2023-03-30T05:57:25;21.70;42.20
46932;DHT22;32670;51.464;11.964;2023-03-30T05:59:50;21.70;42.00
46932;DHT22;32670;51.464;11.964;2023-03-30T06:02:16;21.60;41.70
46932;DHT22;32670;51.464;11.964;2023-03-30T06:04:44;21.50;41.80
46932;DHT22;32670;51.464;11.964;2023-03-30T06:07:09;21.50;41.80
46932;DHT22;32670;51.464;11.964;2023-03-30T06:09:35;21.40;41.80
46932;DHT22;32670;51.464;11.964;2023-03-30T06:12:00;21.40;41.90
46932;DHT22;32670;51.464;11.964;2023-03-30T06:14:26;21.30;41.60
46932;DHT22;32670;51.464;11.964;2023-03-30T06:16:52;21.30;41.80
46932;DHT22;32670;51.464;11.964;2023-03-30T06:19:17;21.20;41.80
46932;DHT22;32670;51.464;11.964;2023-03-30T06:21:43;21.10;41.80
46932;DHT22;32670;51.464;11.964;2023-03-30T06:24:09;21.10;41.80
46932;DHT22;32670;51.464;11.964;2023-03-30T06:26:35;21.10;41.90
46932;DHT22;32670;51.464;11.964;2023-03-30T06:29:00;21.10;42.00
46932;DHT22;32670;51.464;11.964;2023-03-30T06:31:26;21.00;42.00
46932;DHT22;32670;51.464;11.964;2023-03-30T06:33:51;21.00;42.10
46932;DHT22;32670;51.464;11.964;2023-03-30T06:36:17;21.00;42.60
46932;DHT22;32670;51.464;11.964;2023-03-30T06:38:42;21.00;42.80
46932;DHT22;32670;51.464;11.964;2023-03-30T06:41:09;20.90;43.00
46932;DHT22;32670;51.464;11.964;2023-03-30T06:43:36;21.00;43.00
46932;DHT22;32670;51.464;11.964;2023-03-30T06:46:02;20.90;43.10
46932;DHT22;32670;51.464;11.964;2023-03-30T06:48:28;20.90;43.30
46932;DHT22;32670;51.464;11.964;2023-03-30T06:50:54;20.80;43.40
46932;DHT22;32670;51.464;11.964;2023-03-30T06:53:20;20.80;43.60
46932;DHT22;32670;51.464;11.964;2023-03-30T06:55:51;20.80;43.70
46932;DHT22;32670;51.464;11.964;2023-03-30T06:58:16;20.80;43.90
46932;DHT22;32670;51.464;11.964;2023-03-30T07:00:42;20.80;44.00
46932;DHT22;32670;51.464;11.964;2023-03-30T07:03:07;20.80;44.20
46932;DHT22;32670;51.464;11.964;2023-03-30T07:05:33;20.90;44.30
46932;DHT22;32670;51.464;11.964;2023-03-30T07:07:59;20.80;44.40
46932;DHT22;32670;51.464;11.964;2023-03-30T07:10:25;20.80;44.70
46932;DHT22;32670;51.464;11.964;2023-03-30T07:12:50;20.80;44.90
46932;DHT22;32670;51.464;11.964;2023-03-30T07:15:16;20.80;45.10
46932;DHT22;32670;51.464;11.964;2023-03-30T07:17:42;20.80;45.30
46932;DHT22;32670;51.464;11.964;2023-03-30T07:20:09;20.80;45.60
46932;DHT22;32670;51.464;11.964;2023-03-30T07:22:35;20.80;45.70
46932;DHT22;32670;51.464;11.964;2023-03-30T07:25:01;20.80;45.90
46932;DHT22;32670;51.464;11.964;2023-03-30T07:27:26;20.80;46.00
46932;DHT22;32670;51.464;11.964;2023-03-30T07:29:53;20.70;46.20
46932;DHT22;32670;51.464;11.964;2023-03-30T07:32:19;20.80;46.40
46932;DHT22;32670;51.464;11.964;2023-03-30T07:34:45;20.80;46.50
46932;DHT22;32670;51.464;11.964;2023-03-30T07:37:12;20.80;46.70
46932;DHT22;32670;51.464;11.964;2023-03-30T07:39:39;20.70;46.80
46932;DHT22;32670;51.464;11.964;2023-03-30T07:42:05;20.80;47.00
46932;DHT22;32670;51.464;11.964;2023-03-30T07:44:33;20.80;47.20
46932;DHT22;32670;51.464;11.964;2023-03-30T07:46:58;20.70;47.40
46932;DHT22;32670;51.464;11.964;2023-03-30T07:49:24;20.70;47.60
46932;DHT22;32670;51.464;11.964;2023-03-30T07:51:51;20.70;47.70
46932;DHT22;32670;51.464;11.964;2023-03-30T07:54:17;20.70;47.80
46932;DHT22;32670;51.464;11.964;2023-03-30T07:56:43;20.70;48.00
46932;DHT22;32670;51.464;11.964;2023-03-30T07:59:09;20.70;48.20
46932;DHT22;32670;51.464;11.964;2023-03-30T08:01:35;20.70;48.30
46932;DHT22;32670;51.464;11.964;2023-03-30T08:04:01;20.80;48.70
46932;DHT22;32670;51.464;11.964;2023-03-30T08:06:27;20.90;48.50
46932;DHT22;32670;51.464;11.964;2023-03-30T08:08:53;20.90;48.00
46932;DHT22;32670;51.464;11.964;2023-03-30T08:11:19;21.00;47.60
46932;DHT22;32670;51.464;11.964;2023-03-30T08:13:44;21.10;47.40
46932;DHT22;32670;51.464;11.964;2023-03-30T08:16:11;21.10;47.20
46932;DHT22;32670;51.464;11.964;2023-03-30T08:18:36;21.10;47.00
46932;DHT22;32670;51.464;11.964;2023-03-30T08:21:03;21.20;46.80
46932;DHT22;32670;51.464;11.964;2023-03-30T08:23:28;21.30;46.80
46932;DHT22;32670;51.464;11.964;2023-03-30T08:26:00;21.30;46.60
46932;DHT22;32670;51.464;11.964;2023-03-30T08:28:26;21.30;46.60
46932;DHT22;32670;51.464;11.964;2023-03-30T08:30:52;21.30;46.50
46932;DHT22;32670;51.464;11.964;2023-03-30T08:33:19;21.30;46.40
46932;DHT22;32670;51.464;11.964;2023-03-30T08:35:46;21.40;46.40
46932;DHT22;32670;51.464;11.964;2023-03-30T08:38:12;21.40;46.30
46932;DHT22;32670;51.464;11.964;2023-03-30T08:40:48;21.40;46.30
46932;DHT22;32670;51.464;11.964;2023-03-30T08:43:54;21.40;46.10
46932;DHT22;32670;51.464;11.964;2023-03-30T08:46:21;21.40;46.00
46932;DHT22;32670;51.464;11.964;2023-03-30T08:48:47;21.40;46.00
46932;DHT22;32670;51.464;11.964;2023-03-30T08:51:22;21.40;46.00
46932;DHT22;32670;51.464;11.964;2023-03-30T08:53:57;21.50;46.00
46932;DHT22;32670;51.464;11.964;2023-03-30T08:56:27;21.40;45.90
46932;DHT22;32670;51.464;11.964;2023-03-30T09:01:58;21.50;45.90
46932;DHT22;32670;51.464;11.964;2023-03-30T09:07:23;21.50;45.90
46932;DHT22;32670;51.464;11.964;2023-03-30T09:09:49;21.50;45.80
46932;DHT22;32670;51.464;11.964;2023-03-30T09:12:45;21.50;45.90
46932;DHT22;32670;51.464;11.964;2023-03-30T09:15:17;21.50;45.80
46932;DHT22;32670;51.464;11.964;2023-03-30T09:17:54;21.50;45.80
46932;DHT22;32670;51.464;11.964;2023-03-30T09:20:27;21.50;45.70
46932;DHT22;32670;51.464;11.964;2023-03-30T09:22:54;21.50;45.70
46932;DHT22;32670;51.464;11.964;2023-03-30T09:25:28;21.50;45.70
46932;DHT22;32670;51.464;11.964;2023-03-30T09:27:57;21.50;45.70
46932;DHT22;32670;51.464;11.964;2023-03-30T09:30:47;21.50;45.70
46932;DHT22;32670;51.464;11.964;2023-03-30T09:33:37;21.60;45.70
46932;DHT22;32670;51.464;11.964;2023-03-30T09:38:56;21.60;45.70
46932;DHT22;32670;51.464;11.964;2023-03-30T09:44:14;21.60;45.70
46932;DHT22;32670;51.464;11.964;2023-03-30T09:46:42;21.60;45.70
46932;DHT22;32670;51.464;11.964;2023-03-30T09:49:13;21.60;45.60
46932;DHT22;32670;51.464;11.964;2023-03-30T09:51:52;21.60;45.70
46932;DHT22;32670;51.464;11.964;2023-03-30T09:54:19;21.60;45.60
46932;DHT22;32670;51.464;11.964;2023-03-30T09:56:45;21.60;45.60
46932;DHT22;32670;51.464;11.964;2023-03-30T09:59:33;21.60;45.60
46932;DHT22;32670;51.464;11.964;2023-03-30T10:07:26;21.60;45.50
46932;DHT22;32670;51.464;11.964;2023-03-30T10:09:52;21.60;45.50
46932;DHT22;32670;51.464;11.964;2023-03-30T10:12:18;21.60;45.50
46932;DHT22;32670;51.464;11.964;2023-03-30T10:14:44;21.60;45.50
46932;DHT22;32670;51.464;11.964;2023-03-30T10:17:22;21.60;45.50
46932;DHT22;32670;51.464;11.964;2023-03-30T10:20:12;21.60;45.40
46932;DHT22;32670;51.464;11.964;2023-03-30T10:22:36;21.60;45.40
46932;DHT22;32670;51.464;11.964;2023-03-30T10:25:18;21.70;45.50
46932;DHT22;32670;51.464;11.964;2023-03-30T10:27:45;21.70;45.50
46932;DHT22;32670;51.464;11.964;2023-03-30T10:30:18;21.70;45.40
46932;DHT22;32670;51.464;11.964;2023-03-30T10:32:44;21.70;45.40
46932;DHT22;32670;51.464;11.964;2023-03-30T10:35:17;21.60;45.40
46932;DHT22;32670;51.464;11.964;2023-03-30T10:37:44;21.70;45.40
46932;DHT22;32670;51.464;11.964;2023-03-30T10:40:22;21.70;45.40
46932;DHT22;32670;51.464;11.964;2023-03-30T10:42:50;21.70;45.40
46932;DHT22;32670;51.464;11.964;2023-03-30T10:45:21;21.70;45.40
46932;DHT22;32670;51.464;11.964;2023-03-30T10:53:47;21.70;45.80
46932;DHT22;32670;51.464;11.964;2023-03-30T10:56:33;21.70;45.80
46932;DHT22;32670;51.464;11.964;2023-03-30T10:59:15;21.70;45.70
46932;DHT22;32670;51.464;11.964;2023-03-30T11:02:34;21.70;45.70
46932;DHT22;32670;51.464;11.964;2023-03-30T11:05:05;21.70;45.60
46932;DHT22;32670;51.464;11.964;2023-03-30T11:07:46;21.70;45.60
46932;DHT22;32670;51.464;11.964;2023-03-30T11:10:18;21.70;45.60
46932;DHT22;32670;51.464;11.964;2023-03-30T11:12:49;21.80;45.70
46932;DHT22;32670;51.464;11.964;2023-03-30T11:15:27;21.70;45.60
46932;DHT22;32670;51.464;11.964;2023-03-30T11:18:24;21.70;45.60
46932;DHT22;32670;51.464;11.964;2023-03-30T11:20:58;21.70;45.50
46932;DHT22;32670;51.464;11.964;2023-03-30T11:26:26;21.80;45.50
46932;DHT22;32670;51.464;11.964;2023-03-30T11:28:59;21.80;45.50
46932;DHT22;32670;51.464;11.964;2023-03-30T11:31:39;21.80;45.50
46932;DHT22;32670;51.464;11.964;2023-03-30T11:34:28;21.80;45.50
46932;DHT22;32670;51.464;11.964;2023-03-30T11:37:05;21.80;45.50
46932;DHT22;32670;51.464;11.964;2023-03-30T11:39:35;21.80;45.50
46932;DHT22;32670;51.464;11.964;2023-03-30T11:42:14;21.80;45.40
46932;DHT22;32670;51.464;11.964;2023-03-30T11:44:41;21.80;45.40
46932;DHT22;32670;51.464;11.964;2023-03-30T11:50:30;21.80;45.40
46932;DHT22;32670;51.464;11.964;2023-03-30T11:53:31;21.80;45.30
46932;DHT22;32670;51.464;11.964;2023-03-30T11:56:05;21.80;45.30
46932;DHT22;32670;51.464;11.964;2023-03-30T11:59:00;21.80;45.30
46932;DHT22;32670;51.464;11.964;2023-03-30T12:01:53;21.80;45.30
46932;DHT22;32670;51.464;11.964;2023-03-30T12:04:38;21.80;45.30
46932;DHT22;32670;51.464;11.964;2023-03-30T12:10:01;21.80;45.30
46932;DHT22;32670;51.464;11.964;2023-03-30T12:12:32;21.80;45.30
46932;DHT22;32670;51.464;11.964;2023-03-30T12:18:10;21.80;45.30
46932;DHT22;32670;51.464;11.964;2023-03-30T12:23:40;21.80;45.30
46932;DHT22;32670;51.464;11.964;2023-03-30T12:28:47;21.80;45.20
46932;DHT22;32670;51.464;11.964;2023-03-30T12:31:13;21.80;45.20
46932;DHT22;32670;51.464;11.964;2023-03-30T12:33:47;21.80;45.30
46932;DHT22;32670;51.464;11.964;2023-03-30T12:36:31;21.90;45.30
46932;DHT22;32670;51.464;11.964;2023-03-30T12:39:00;21.90;45.90
46932;DHT22;32670;51.464;11.964;2023-03-30T12:41:42;21.80;45.20
46932;DHT22;32670;51.464;11.964;2023-03-30T12:44:23;21.80;45.20
46932;DHT22;32670;51.464;11.964;2023-03-30T12:56:57;21.90;46.10
46932;DHT22;32670;51.464;11.964;2023-03-30T13:02:01;21.90;45.40
46932;DHT22;32670;51.464;11.964;2023-03-30T13:04:34;21.90;45.40
46932;DHT22;32670;51.464;11.964;2023-03-30T13:07:05;21.90;45.40
46932;DHT22;32670;51.464;11.964;2023-03-30T13:09:34;21.90;45.40
46932;DHT22;32670;51.464;11.964;2023-03-30T13:24:43;21.90;45.40
46932;DHT22;32670;51.464;11.964;2023-03-30T13:30:11;21.90;45.30
46932;DHT22;32670;51.464;11.964;2023-03-30T13:35:26;21.90;45.40
46932;DHT22;32670;51.464;11.964;2023-03-30T13:41:28;21.90;45.40
46932;DHT22;32670;51.464;11.964;2023-03-30T13:44:19;21.90;45.30
46932;DHT22;32670;51.464;11.964;2023-03-30T13:46:58;21.90;45.30
46932;DHT22;32670;51.464;11.964;2023-03-30T13:52:14;21.90;45.30
46932;DHT22;32670;51.464;11.964;2023-03-30T13:54:40;21.90;45.20
46932;DHT22;32670;51.464;11.964;2023-03-30T13:57:19;21.90;45.20
46932;DHT22;32670;51.464;11.964;2023-03-30T14:00:02;21.90;45.20
46932;DHT22;32670;51.464;11.964;2023-03-30T14:02:29;21.90;45.10
46932;DHT22;32670;51.464;11.964;2023-03-30T14:05:20;21.90;46.00
46932;DHT22;32670;51.464;11.964;2023-03-30T14:07:46;21.90;45.30
46932;DHT22;32670;51.464;11.964;2023-03-30T14:10:16;21.90;45.30
46932;DHT22;32670;51.464;11.964;2023-03-30T14:12:43;21.90;45.20
46932;DHT22;32670;51.464;11.964;2023-03-30T14:15:25;21.90;45.20
46932;DHT22;32670;51.464;11.964;2023-03-30T14:17:56;21.90;45.10
46932;DHT22;32670;51.464;11.964;2023-03-30T14:20:48;21.90;45.20
46932;DHT22;32670;51.464;11.964;2023-03-30T14:23:24;21.90;45.10
46932;DHT22;32670;51.464;11.964;2023-03-30T14:26:03;21.90;45.10
46932;DHT22;32670;51.464;11.964;2023-03-30T14:28:33;21.90;45.10
46932;DHT22;32670;51.464;11.964;2023-03-30T14:31:03;21.90;45.10
46932;DHT22;32670;51.464;11.964;2023-03-30T14:33:37;21.90;45.10
46932;DHT22;32670;51.464;11.964;2023-03-30T14:36:04;21.90;45.00
46932;DHT22;32670;51.464;11.964;2023-03-30T14:38:34;21.90;45.10
46932;DHT22;32670;51.464;11.964;2023-03-30T14:41:07;21.90;45.10
46932;DHT22;32670;51.464;11.964;2023-03-30T14:43:33;21.90;45.00
46932;DHT22;32670;51.464;11.964;2023-03-30T14:46:03;21.90;45.00
46932;DHT22;32670;51.464;11.964;2023-03-30T14:48:39;21.90;45.00
46932;DHT22;32670;51.464;11.964;2023-03-30T14:51:25;21.90;45.00
46932;DHT22;32670;51.464;11.964;2023-03-30T14:53:51;21.90;45.00
46932;DHT22;32670;51.464;11.964;2023-03-30T14:56:19;21.90;45.00
46932;DHT22;32670;51.464;11.964;2023-03-30T14:58:46;21.90;45.00
46932;DHT22;32670;51.464;11.964;2023-03-30T15:01:15;21.90;45.00
46932;DHT22;32670;51.464;11.964;2023-03-30T15:03:43;21.90;45.00
46932;DHT22;32670;51.464;11.964;2023-03-30T15:06:14;21.90;45.00
46932;DHT22;32670;51.464;11.964;2023-03-30T15:08:40;21.90;45.00
46932;DHT22;32670;51.464;11.964;2023-03-30T15:11:08;21.90;45.00
46932;DHT22;32670;51.464;11.964;2023-03-30T15:13:40;21.90;45.00
46932;DHT22;32670;51.464;11.964;2023-03-30T15:16:10;21.90;44.90
46932;DHT22;32670;51.464;11.964;2023-03-30T15:18:36;21.90;45.00
46932;DHT22;32670;51.464;11.964;2023-03-30T15:21:02;21.90;45.00
46932;DHT22;32670;51.464;11.964;2023-03-30T15:23:35;21.90;45.00
46932;DHT22;32670;51.464;11.964;2023-03-30T15:26:03;21.90;45.00
46932;DHT22;32670;51.464;11.964;2023-03-30T15:28:31;21.90;45.00
46932;DHT22;32670;51.464;11.964;2023-03-30T15:30:59;21.90;45.00
46932;DHT22;32670;51.464;11.964;2023-03-30T15:33:35;22.00;45.10
46932;DHT22;32670;51.464;11.964;2023-03-30T15:36:10;21.90;45.00
46932;DHT22;32670;51.464;11.964;2023-03-30T15:38:50;22.00;45.00
46932;DHT22;32670;51.464;11.964;2023-03-30T15:41:17;22.00;45.10
46932;DHT22;32670;51.464;11.964;2023-03-30T15:44:14;21.90;45.00
46932;DHT22;32670;51.464;11.964;2023-03-30T15:46:40;21.90;44.90
46932;DHT22;32670;51.464;11.964;2023-03-30T15:49:10;22.00;45.00
46932;DHT22;32670;51.464;11.964;2023-03-30T15:51:40;22.00;45.00
46932;DHT22;32670;51.464;11.964;2023-03-30T15:54:20;22.00;45.00
46932;DHT22;32670;51.464;11.964;2023-03-30T15:56:55;21.90;44.90
46932;DHT22;32670;51.464;11.964;2023-03-30T15:59:26;22.00;45.00
46932;DHT22;32670;51.464;11.964;2023-03-30T16:01:53;22.00;45.00
46932;DHT22;32670;51.464;11.964;2023-03-30T16:04:22;22.00;45.00
46932;DHT22;32670;51.464;11.964;2023-03-30T16:06:48;21.90;45.00
46932;DHT22;32670;51.464;11.964;2023-03-30T16:09:14;22.00;45.00
46932;DHT22;32670;51.464;11.964;2023-03-30T16:11:40;22.00;45.00
46932;DHT22;32670;51.464;11.964;2023-03-30T16:14:09;22.00;45.00
46932;DHT22;32670;51.464;11.964;2023-03-30T16:16:36;22.00;45.00
46932;DHT22;32670;51.464;11.964;2023-03-30T16:19:01;22.00;45.00
46932;DHT22;32670;51.464;11.964;2023-03-30T16:21:27;22.00;44.90
46932;DHT22;32670;51.464;11.964;2023-03-30T16:23:53;22.00;45.00
46932;DHT22;32670;51.464;11.964;2023-03-30T16:26:18;22.00;45.00
46932;DHT22;32670;51.464;11.964;2023-03-30T16:28:44;22.00;44.90
46932;DHT22;32670;51.464;11.964;2023-03-30T16:31:19;22.00;45.20
46932;DHT22;32670;51.464;11.964;2023-03-30T16:33:45;22.00;45.00
46932;DHT22;32670;51.464;11.964;2023-03-30T16:36:13;22.00;45.00
46932;DHT22;32670;51.464;11.964;2023-03-30T16:38:39;22.00;44.90
46932;DHT22;32670;51.464;11.964;2023-03-30T16:41:04;22.00;45.00
46932;DHT22;32670;51.464;11.964;2023-03-30T16:43:31;22.00;45.00
46932;DHT22;32670;51.464;11.964;2023-03-30T16:45:56;22.00;45.00
46932;DHT22;32670;51.464;11.964;2023-03-30T16:48:21;22.00;45.00
46932;DHT22;32670;51.464;11.964;2023-03-30T16:50:51;22.00;45.00
46932;DHT22;32670;51.464;11.964;2023-03-30T16:53:16;22.00;45.00
46932;DHT22;32670;51.464;11.964;2023-03-30T16:55:42;22.00;45.00
46932;DHT22;32670;51.464;11.964;2023-03-30T16:58:11;22.00;45.00
46932;DHT22;32670;51.464;11.964;2023-03-30T17:00:44;22.00;45.00
46932;DHT22;32670;51.464;11.964;2023-03-30T17:03:10;22.00;45.00
46932;DHT22;32670;51.464;11.964;2023-03-30T17:05:36;21.90;45.00
46932;DHT22;32670;51.464;11.964;2023-03-30T17:08:04;22.00;45.00
46932;DHT22;32670;51.464;11.964;2023-03-30T17:10:32;22.00;45.60
46932;DHT22;32670;51.464;11.964;2023-03-30T17:12:59;22.00;45.00
46932;DHT22;32670;51.464;11.964;2023-03-30T17:15:25;22.00;45.00
46932;DHT22;32670;51.464;11.964;2023-03-30T17:17:51;22.00;45.00